sensor_id;sensor_type;location;lat;lon;timestamp;temperature;humidity
26990;DHT22;14537;47.788;11.858;2022-09-02T00:00:16;9.10;99.90
26990;DHT22;14537;47.788;11.858;2022-09-02T00:02:47;9.00;99.90
26990;DHT22;14537;47.788;11.858;2022-09-02T00:05:12;9.00;99.90
26990;DHT22;14537;47.788;11.858;2022-09-02T00:07:38;9.00;99.90
26990;DHT22;14537;47.788;11.858;2022-09-02T00:10:03;9.00;99.90
26990;DHT22;14537;47.788;11.858;2022-09-02T00:12:29;9.00;99.90
26990;DHT22;14537;47.788;11.858;2022-09-02T00:14:55;9.00;99.90
26990;DHT22;14537;47.788;11.858;2022-09-02T00:17:20;8.90;99.90
26990;DHT22;14537;47.788;11.858;2022-09-02T00:19:46;8.80;99.90
26990;DHT22;14537;47.788;11.858;2022-09-02T00:22:11;8.80;99.90
26990;DHT22;14537;47.788;11.858;2022-09-02T00:24:37;8.80;99.90
26990;DHT22;14537;47.788;11.858;2022-09-02T00:27:02;8.80;99.90
26990;DHT22;14537;47.788;11.858;2022-09-02T00:29:28;8.80;99.90
26990;DHT22;14537;47.788;11.858;2022-09-02T00:31:54;8.80;99.90
26990;DHT22;14537;47.788;11.858;2022-09-02T00:34:19;8.70;99.90
26990;DHT22;14537;47.788;11.858;2022-09-02T00:36:45;8.60;99.90
26990;DHT22;14537;47.788;11.858;2022-09-02T00:39:11;8.50;99.90
26990;DHT22;14537;47.788;11.858;2022-09-02T00:41:37;8.50;99.90
26990;DHT22;14537;47.788;11.858;2022-09-02T00:44:04;8.40;99.90
26990;DHT22;14537;47.788;11.858;2022-09-02T00:46:31;8.30;99.90
26990;DHT22;14537;47.788;11.858;2022-09-02T00:49:05;8.30;99.90
26990;DHT22;14537;47.788;11.858;2022-09-02T00:51:35;8.30;99.90
26990;DHT22;14537;47.788;11.858;2022-09-02T00:54:02;8.30;99.90
26990;DHT22;14537;47.788;11.858;2022-09-02T00:56:29;8.30;99.90
26990;DHT22;14537;47.788;11.858;2022-09-02T00:58:55;8.30;99.90
26990;DHT22;14537;47.788;11.858;2022-09-02T01:01:21;8.20;99.90
26990;DHT22;14537;47.788;11.858;2022-09-02T01:03:47;8.20;99.90
26990;DHT22;14537;47.788;11.858;2022-09-02T01:06:13;8.20;99.90
26990;DHT22;14537;47.788;11.858;2022-09-02T01:08:41;8.30;99.90
26990;DHT22;14537;47.788;11.858;2022-09-02T01:11:07;8.30;99.90
26990;DHT22;14537;47.788;11.858;2022-09-02T01:13:36;8.30;99.90
26990;DHT22;14537;47.788;11.858;2022-09-02T01:16:08;8.30;99.90
26990;DHT22;14537;47.788;11.858;2022-09-02T01:18:34;8.30;99.90
26990;DHT22;14537;47.788;11.858;2022-09-02T01:21:00;8.30;99.90
26990;DHT22;14537;47.788;11.858;2022-09-02T01:23:27;8.40;99.90
26990;DHT22;14537;47.788;11.858;2022-09-02T01:25:53;8.30;99.90
26990;DHT22;14537;47.788;11.858;2022-09-02T01:28:19;8.30;99.90
26990;DHT22;14537;47.788;11.858;2022-09-02T01:30:47;8.30;99.90
26990;DHT22;14537;47.788;11.858;2022-09-02T01:33:13;8.30;99.90
26990;DHT22;14537;47.788;11.858;2022-09-02T01:35:39;8.30;99.90
26990;DHT22;14537;47.788;11.858;2022-09-02T01:38:05;8.30;99.90
26990;DHT22;14537;47.788;11.858;2022-09-02T01:40:31;8.30;99.90
26990;DHT22;14537;47.788;11.858;2022-09-02T01:42:58;8.30;99.90
26990;DHT22;14537;47.788;11.858;2022-09-02T01:45:24;8.30;99.90
26990;DHT22;14537;47.788;11.858;2022-09-02T01:47:50;8.20;99.90
26990;DHT22;14537;47.788;11.858;2022-09-02T01:50:16;8.20;99.90
26990;DHT22;14537;47.788;11.858;2022-09-02T01:52:42;8.20;99.90
26990;DHT22;14537;47.788;11.858;2022-09-02T01:55:08;8.20;99.90
26990;DHT22;14537;47.788;11.858;2022-09-02T01:57:33;8.20;99.90
26990;DHT22;14537;47.788;11.858;2022-09-02T01:59:59;8.10;99.90
26990;DHT22;14537;47.788;11.858;2022-09-02T02:02:26;8.10;99.90
26990;DHT22;14537;47.788;11.858;2022-09-02T02:04:51;8.20;99.90
26990;DHT22;14537;47.788;11.858;2022-09-02T02:07:19;8.20;99.90
26990;DHT22;14537;47.788;11.858;2022-09-02T02:09:45;8.20;99.90
26990;DHT22;14537;47.788;11.858;2022-09-02T02:12:10;8.20;99.90
26990;DHT22;14537;47.788;11.858;2022-09-02T02:14:37;8.30;99.90
26990;DHT22;14537;47.788;11.858;2022-09-02T02:17:02;8.20;99.90
26990;DHT22;14537;47.788;11.858;2022-09-02T02:19:28;8.20;99.90
26990;DHT22;14537;47.788;11.858;2022-09-02T02:21:54;8.20;99.90
26990;DHT22;14537;47.788;11.858;2022-09-02T02:24:19;8.20;99.90
26990;DHT22;14537;47.788;11.858;2022-09-02T02:26:45;8.10;99.90
26990;DHT22;14537;47.788;11.858;2022-09-02T02:29:12;8.20;99.90
26990;DHT22;14537;47.788;11.858;2022-09-02T02:31:37;8.20;99.90
26990;DHT22;14537;47.788;11.858;2022-09-02T02:34:03;8.10;99.90
26990;DHT22;14537;47.788;11.858;2022-09-02T02:36:29;8.10;99.90
26990;DHT22;14537;47.788;11.858;2022-09-02T02:38:54;8.10;99.90
26990;DHT22;14537;47.788;11.858;2022-09-02T02:41:20;8.10;99.90
26990;DHT22;14537;47.788;11.858;2022-09-02T02:43:46;8.10;99.90
26990;DHT22;14537;47.788;11.858;2022-09-02T02:46:12;8.10;99.90
26990;DHT22;14537;47.788;11.858;2022-09-02T02:48:38;8.10;99.90
26990;DHT22;14537;47.788;11.858;2022-09-02T02:51:04;8.10;99.90
26990;DHT22;14537;47.788;11.858;2022-09-02T02:53:29;8.10;99.90
26990;DHT22;14537;47.788;11.858;2022-09-02T02:55:56;8.00;99.90
26990;DHT22;14537;47.788;11.858;2022-09-02T02:58:22;8.00;99.90
26990;DHT22;14537;47.788;11.858;2022-09-02T03:00:47;8.00;99.90
26990;DHT22;14537;47.788;11.858;2022-09-02T03:03:13;8.10;99.90
26990;DHT22;14537;47.788;11.858;2022-09-02T03:05:43;8.10;99.90
26990;DHT22;14537;47.788;11.858;2022-09-02T03:08:10;8.10;99.90
26990;DHT22;14537;47.788;11.858;2022-09-02T03:10:35;8.00;99.90
26990;DHT22;14537;47.788;11.858;2022-09-02T03:13:03;8.00;99.90
26990;DHT22;14537;47.788;11.858;2022-09-02T03:15:28;8.00;99.90
26990;DHT22;14537;47.788;11.858;2022-09-02T03:17:54;8.00;99.90
26990;DHT22;14537;47.788;11.858;2022-09-02T03:20:21;8.00;99.90
26990;DHT22;14537;47.788;11.858;2022-09-02T03:22:46;8.00;99.90
26990;DHT22;14537;47.788;11.858;2022-09-02T03:25:14;8.00;99.90
26990;DHT22;14537;47.788;11.858;2022-09-02T03:27:40;8.00;99.90
26990;DHT22;14537;47.788;11.858;2022-09-02T03:30:07;8.00;99.90
26990;DHT22;14537;47.788;11.858;2022-09-02T03:32:33;7.90;99.90
26990;DHT22;14537;47.788;11.858;2022-09-02T03:35:00;7.80;99.90
26990;DHT22;14537;47.788;11.858;2022-09-02T03:37:25;7.60;99.90
26990;DHT22;14537;47.788;11.858;2022-09-02T03:39:51;7.50;99.90
26990;DHT22;14537;47.788;11.858;2022-09-02T03:42:16;7.50;99.90
26990;DHT22;14537;47.788;11.858;2022-09-02T03:44:42;7.60;99.90
26990;DHT22;14537;47.788;11.858;2022-09-02T03:47:07;7.60;99.90
26990;DHT22;14537;47.788;11.858;2022-09-02T03:49:33;7.60;99.90
26990;DHT22;14537;47.788;11.858;2022-09-02T03:51:59;7.60;99.90
26990;DHT22;14537;47.788;11.858;2022-09-02T03:54:24;7.60;99.90
26990;DHT22;14537;47.788;11.858;2022-09-02T03:56:50;7.60;99.90
26990;DHT22;14537;47.788;11.858;2022-09-02T03:59:16;7.60;99.90
26990;DHT22;14537;47.788;11.858;2022-09-02T04:01:41;7.60;99.90
26990;DHT22;14537;47.788;11.858;2022-09-02T04:04:07;7.60;99.90
26990;DHT22;14537;47.788;11.858;2022-09-02T04:06:33;7.50;99.90
26990;DHT22;14537;47.788;11.858;2022-09-02T04:08:59;7.50;99.90
26990;DHT22;14537;47.788;11.858;2022-09-02T04:11:24;7.40;99.90
26990;DHT22;14537;47.788;11.858;2022-09-02T04:13:51;7.40;99.90
26990;DHT22;14537;47.788;11.858;2022-09-02T04:16:18;7.30;99.90
26990;DHT22;14537;47.788;11.858;2022-09-02T04:18:44;7.30;99.90
26990;DHT22;14537;47.788;11.858;2022-09-02T04:21:10;7.40;99.90
26990;DHT22;14537;47.788;11.858;2022-09-02T04:23:36;7.40;99.90
26990;DHT22;14537;47.788;11.858;2022-09-02T04:26:06;7.40;99.90
26990;DHT22;14537;47.788;11.858;2022-09-02T04:28:32;7.40;99.90
26990;DHT22;14537;47.788;11.858;2022-09-02T04:30:58;7.40;99.90
26990;DHT22;14537;47.788;11.858;2022-09-02T04:33:23;7.30;99.90
26990;DHT22;14537;47.788;11.858;2022-09-02T04:35:49;7.30;99.90
26990;DHT22;14537;47.788;11.858;2022-09-02T04:38:16;7.30;99.90
26990;DHT22;14537;47.788;11.858;2022-09-02T04:40:43;7.30;99.90
26990;DHT22;14537;47.788;11.858;2022-09-02T04:43:09;7.30;99.90
26990;DHT22;14537;47.788;11.858;2022-09-02T04:45:38;7.30;99.90
26990;DHT22;14537;47.788;11.858;2022-09-02T04:48:04;7.30;99.90
26990;DHT22;14537;47.788;11.858;2022-09-02T04:50:29;7.30;99.90
26990;DHT22;14537;47.788;11.858;2022-09-02T04:52:55;7.40;99.90
26990;DHT22;14537;47.788;11.858;2022-09-02T04:55:20;7.40;99.90
26990;DHT22;14537;47.788;11.858;2022-09-02T04:57:46;7.50;99.90
26990;DHT22;14537;47.788;11.858;2022-09-02T05:00:12;7.50;99.90
26990;DHT22;14537;47.788;11.858;2022-09-02T05:02:37;7.60;99.90
26990;DHT22;14537;47.788;11.858;2022-09-02T05:05:03;7.70;99.90
26990;DHT22;14537;47.788;11.858;2022-09-02T05:07:30;7.80;99.90
26990;DHT22;14537;47.788;11.858;2022-09-02T05:09:56;7.90;99.90
26990;DHT22;14537;47.788;11.858;2022-09-02T05:12:22;8.00;99.90
26990;DHT22;14537;47.788;11.858;2022-09-02T05:14:49;8.10;99.90
26990;DHT22;14537;47.788;11.858;2022-09-02T05:17:15;8.20;99.90
26990;DHT22;14537;47.788;11.858;2022-09-02T05:19:40;8.30;99.90
26990;DHT22;14537;47.788;11.858;2022-09-02T05:22:06;8.40;99.90
26990;DHT22;14537;47.788;11.858;2022-09-02T05:24:31;8.50;99.90
26990;DHT22;14537;47.788;11.858;2022-09-02T05:26:57;8.60;99.90
26990;DHT22;14537;47.788;11.858;2022-09-02T05:29:22;8.70;99.90
26990;DHT22;14537;47.788;11.858;2022-09-02T05:31:48;8.80;99.90
26990;DHT22;14537;47.788;11.858;2022-09-02T05:34:14;8.90;99.90
26990;DHT22;14537;47.788;11.858;2022-09-02T05:36:40;9.00;99.90
26990;DHT22;14537;47.788;11.858;2022-09-02T05:39:05;9.20;99.90
26990;DHT22;14537;47.788;11.858;2022-09-02T05:41:31;9.20;99.90
26990;DHT22;14537;47.788;11.858;2022-09-02T05:43:58;9.30;99.90
26990;DHT22;14537;47.788;11.858;2022-09-02T05:46:24;9.40;99.90
26990;DHT22;14537;47.788;11.858;2022-09-02T05:48:50;9.50;99.90
26990;DHT22;14537;47.788;11.858;2022-09-02T05:51:32;9.60;99.90
26990;DHT22;14537;47.788;11.858;2022-09-02T05:53:59;9.60;99.90
26990;DHT22;14537;47.788;11.858;2022-09-02T05:56:25;9.80;99.90
26990;DHT22;14537;47.788;11.858;2022-09-02T05:58:51;9.80;99.90
26990;DHT22;14537;47.788;11.858;2022-09-02T06:01:19;9.80;99.90
26990;DHT22;14537;47.788;11.858;2022-09-02T06:03:44;9.80;99.90
26990;DHT22;14537;47.788;11.858;2022-09-02T06:06:10;9.80;99.90
26990;DHT22;14537;47.788;11.858;2022-09-02T06:08:36;9.80;99.90
26990;DHT22;14537;47.788;11.858;2022-09-02T06:11:03;9.80;99.90
26990;DHT22;14537;47.788;11.858;2022-09-02T06:13:29;9.90;99.90
26990;DHT22;14537;47.788;11.858;2022-09-02T06:15:55;10.00;99.90
26990;DHT22;14537;47.788;11.858;2022-09-02T06:18:22;10.00;99.90
26990;DHT22;14537;47.788;11.858;2022-09-02T06:20:48;10.10;99.90
26990;DHT22;14537;47.788;11.858;2022-09-02T06:23:14;10.10;99.90
26990;DHT22;14537;47.788;11.858;2022-09-02T06:25:41;10.20;99.90
26990;DHT22;14537;47.788;11.858;2022-09-02T06:28:07;10.30;99.90
26990;DHT22;14537;47.788;11.858;2022-09-02T06:30:33;10.40;99.90
26990;DHT22;14537;47.788;11.858;2022-09-02T06:32:59;10.50;99.90
26990;DHT22;14537;47.788;11.858;2022-09-02T06:35:27;10.60;99.90
26990;DHT22;14537;47.788;11.858;2022-09-02T06:37:53;10.70;99.90
26990;DHT22;14537;47.788;11.858;2022-09-02T06:40:18;10.80;99.90
26990;DHT22;14537;47.788;11.858;2022-09-02T06:42:44;11.00;99.90
26990;DHT22;14537;47.788;11.858;2022-09-02T06:45:10;11.00;99.90
26990;DHT22;14537;47.788;11.858;2022-09-02T06:47:35;11.10;99.90
26990;DHT22;14537;47.788;11.858;2022-09-02T06:50:01;11.20;99.90
26990;DHT22;14537;47.788;11.858;2022-09-02T06:52:27;11.30;99.90
26990;DHT22;14537;47.788;11.858;2022-09-02T06:54:53;11.40;99.90
26990;DHT22;14537;47.788;11.858;2022-09-02T06:57:19;11.50;99.90
26990;DHT22;14537;47.788;11.858;2022-09-02T06:59:45;11.50;99.90
26990;DHT22;14537;47.788;11.858;2022-09-02T07:02:11;11.60;99.90
26990;DHT22;14537;47.788;11.858;2022-09-02T07:04:37;11.70;99.90
26990;DHT22;14537;47.788;11.858;2022-09-02T07:07:21;11.80;99.90
26990;DHT22;14537;47.788;11.858;2022-09-02T07:09:47;11.90;99.90
26990;DHT22;14537;47.788;11.858;2022-09-02T07:12:12;11.90;99.90
26990;DHT22;14537;47.788;11.858;2022-09-02T07:14:40;12.10;99.90
26990;DHT22;14537;47.788;11.858;2022-09-02T07:17:06;12.10;99.90
26990;DHT22;14537;47.788;11.858;2022-09-02T07:19:32;12.20;99.90
26990;DHT22;14537;47.788;11.858;2022-09-02T07:21:58;12.20;99.90
26990;DHT22;14537;47.788;11.858;2022-09-02T07:24:23;12.30;99.90
26990;DHT22;14537;47.788;11.858;2022-09-02T07:26:49;12.30;99.90
26990;DHT22;14537;47.788;11.858;2022-09-02T07:29:15;12.40;99.90
26990;DHT22;14537;47.788;11.858;2022-09-02T07:31:41;12.60;99.90
26990;DHT22;14537;47.788;11.858;2022-09-02T07:34:07;12.70;99.90
26990;DHT22;14537;47.788;11.858;2022-09-02T07:36:34;12.60;99.90
26990;DHT22;14537;47.788;11.858;2022-09-02T07:39:01;12.60;99.90
26990;DHT22;14537;47.788;11.858;2022-09-02T07:41:26;12.70;99.90
26990;DHT22;14537;47.788;11.858;2022-09-02T07:43:52;12.70;99.90
26990;DHT22;14537;47.788;11.858;2022-09-02T07:46:18;12.80;99.90
26990;DHT22;14537;47.788;11.858;2022-09-02T07:48:44;13.00;99.90
26990;DHT22;14537;47.788;11.858;2022-09-02T07:51:10;13.10;99.90
26990;DHT22;14537;47.788;11.858;2022-09-02T07:53:36;13.20;99.90
26990;DHT22;14537;47.788;11.858;2022-09-02T07:56:01;13.20;99.90
26990;DHT22;14537;47.788;11.858;2022-09-02T07:58:27;13.20;99.90
26990;DHT22;14537;47.788;11.858;2022-09-02T08:00:53;13.20;99.90
26990;DHT22;14537;47.788;11.858;2022-09-02T08:03:22;13.10;99.90
26990;DHT22;14537;47.788;11.858;2022-09-02T08:05:47;13.10;99.90
26990;DHT22;14537;47.788;11.858;2022-09-02T08:08:14;13.00;99.90
26990;DHT22;14537;47.788;11.858;2022-09-02T08:10:40;13.10;99.90
26990;DHT22;14537;47.788;11.858;2022-09-02T08:13:06;13.10;99.90
26990;DHT22;14537;47.788;11.858;2022-09-02T08:15:32;13.30;99.90
26990;DHT22;14537;47.788;11.858;2022-09-02T08:17:59;13.40;99.90
26990;DHT22;14537;47.788;11.858;2022-09-02T08:20:24;13.50;99.90
26990;DHT22;14537;47.788;11.858;2022-09-02T08:22:50;13.60;99.90
26990;DHT22;14537;47.788;11.858;2022-09-02T08:25:16;13.70;99.90
26990;DHT22;14537;47.788;11.858;2022-09-02T08:27:44;13.80;99.90
26990;DHT22;14537;47.788;11.858;2022-09-02T08:30:10;13.90;99.90
26990;DHT22;14537;47.788;11.858;2022-09-02T08:32:37;14.00;99.90
26990;DHT22;14537;47.788;11.858;2022-09-02T08:35:03;14.00;99.90
26990;DHT22;14537;47.788;11.858;2022-09-02T08:37:29;14.00;99.90
26990;DHT22;14537;47.788;11.858;2022-09-02T08:39:58;13.90;99.90
26990;DHT22;14537;47.788;11.858;2022-09-02T08:42:35;13.90;99.90
26990;DHT22;14537;47.788;11.858;2022-09-02T08:47:48;13.80;99.90
26990;DHT22;14537;47.788;11.858;2022-09-02T08:50:17;13.80;99.90
26990;DHT22;14537;47.788;11.858;2022-09-02T08:52:45;13.80;99.90
26990;DHT22;14537;47.788;11.858;2022-09-02T08:55:15;13.70;99.90
26990;DHT22;14537;47.788;11.858;2022-09-02T08:57:43;13.80;99.90
26990;DHT22;14537;47.788;11.858;2022-09-02T09:00:10;13.80;99.90
26990;DHT22;14537;47.788;11.858;2022-09-02T09:05:23;13.80;99.90
26990;DHT22;14537;47.788;11.858;2022-09-02T09:08:11;13.90;99.90
26990;DHT22;14537;47.788;11.858;2022-09-02T09:21:17;14.00;99.90
26990;DHT22;14537;47.788;11.858;2022-09-02T09:23:42;14.10;99.90
26990;DHT22;14537;47.788;11.858;2022-09-02T09:26:09;14.20;99.90
26990;DHT22;14537;47.788;11.858;2022-09-02T09:28:39;14.20;99.90
26990;DHT22;14537;47.788;11.858;2022-09-02T09:31:08;14.30;99.90
26990;DHT22;14537;47.788;11.858;2022-09-02T09:33:35;14.30;99.90
26990;DHT22;14537;47.788;11.858;2022-09-02T09:36:00;14.30;99.90
26990;DHT22;14537;47.788;11.858;2022-09-02T09:38:30;14.30;99.90
26990;DHT22;14537;47.788;11.858;2022-09-02T09:43:40;14.40;99.90
26990;DHT22;14537;47.788;11.858;2022-09-02T09:46:39;14.50;99.90
26990;DHT22;14537;47.788;11.858;2022-09-02T09:48:58;14.50;99.90
26990;DHT22;14537;47.788;11.858;2022-09-02T09:51:24;14.70;99.90
26990;DHT22;14537;47.788;11.858;2022-09-02T09:53:50;14.70;99.90
26990;DHT22;14537;47.788;11.858;2022-09-02T09:58:45;14.90;99.90
26990;DHT22;14537;47.788;11.858;2022-09-02T10:01:21;14.90;99.90
26990;DHT22;14537;47.788;11.858;2022-09-02T10:04:48;15.00;99.90
26990;DHT22;14537;47.788;11.858;2022-09-02T10:06:42;15.10;99.90
26990;DHT22;14537;47.788;11.858;2022-09-02T10:11:56;15.20;99.90
26990;DHT22;14537;47.788;11.858;2022-09-02T10:14:22;15.30;99.90
26990;DHT22;14537;47.788;11.858;2022-09-02T10:19:37;15.50;99.90
26990;DHT22;14537;47.788;11.858;2022-09-02T10:27:15;15.70;99.90
26990;DHT22;14537;47.788;11.858;2022-09-02T10:29:49;15.80;99.90
26990;DHT22;14537;47.788;11.858;2022-09-02T10:34:52;15.90;99.90
26990;DHT22;14537;47.788;11.858;2022-09-02T10:37:20;15.90;99.90
26990;DHT22;14537;47.788;11.858;2022-09-02T10:42:47;16.10;99.90
26990;DHT22;14537;47.788;11.858;2022-09-02T10:45:19;16.20;99.90
26990;DHT22;14537;47.788;11.858;2022-09-02T10:48:04;16.20;99.90
26990;DHT22;14537;47.788;11.858;2022-09-02T10:50:41;16.30;99.90
26990;DHT22;14537;47.788;11.858;2022-09-02T10:55:43;16.30;99.90
26990;DHT22;14537;47.788;11.858;2022-09-02T10:58:18;16.40;99.90
26990;DHT22;14537;47.788;11.858;2022-09-02T11:00:47;16.50;99.90
26990;DHT22;14537;47.788;11.858;2022-09-02T11:06:03;16.70;99.90
26990;DHT22;14537;47.788;11.858;2022-09-02T11:11:21;17.00;99.90
26990;DHT22;14537;47.788;11.858;2022-09-02T11:14:00;17.10;99.90
26990;DHT22;14537;47.788;11.858;2022-09-02T11:16:29;17.10;99.90
26990;DHT22;14537;47.788;11.858;2022-09-02T11:26:30;17.60;99.90
26990;DHT22;14537;47.788;11.858;2022-09-02T11:31:35;17.70;99.90
26990;DHT22;14537;47.788;11.858;2022-09-02T11:34:04;17.80;99.90
26990;DHT22;14537;47.788;11.858;2022-09-02T11:36:36;17.90;99.90
26990;DHT22;14537;47.788;11.858;2022-09-02T11:39:04;18.10;99.90
26990;DHT22;14537;47.788;11.858;2022-09-02T11:54:44;18.40;99.90
26990;DHT22;14537;47.788;11.858;2022-09-02T11:57:12;18.50;99.90
26990;DHT22;14537;47.788;11.858;2022-09-02T12:02:35;18.60;99.90
26990;DHT22;14537;47.788;11.858;2022-09-02T12:07:46;18.80;99.90
26990;DHT22;14537;47.788;11.858;2022-09-02T12:15:24;19.10;99.90
26990;DHT22;14537;47.788;11.858;2022-09-02T12:23:00;19.30;99.90
26990;DHT22;14537;47.788;11.858;2022-09-02T12:28:15;19.70;99.90
26990;DHT22;14537;47.788;11.858;2022-09-02T12:33:32;20.00;99.90
26990;DHT22;14537;47.788;11.858;2022-09-02T12:35:58;20.00;99.90
26990;DHT22;14537;47.788;11.858;2022-09-02T12:38:25;20.10;99.90
26990;DHT22;14537;47.788;11.858;2022-09-02T12:43:27;20.20;99.90
26990;DHT22;14537;47.788;11.858;2022-09-02T12:45:56;20.30;99.90
26990;DHT22;14537;47.788;11.858;2022-09-02T12:48:26;20.30;99.90
26990;DHT22;14537;47.788;11.858;2022-09-02T12:50:57;20.40;99.90
26990;DHT22;14537;47.788;11.858;2022-09-02T12:55:52;20.60;99.90
26990;DHT22;14537;47.788;11.858;2022-09-02T12:58:19;20.70;99.90
26990;DHT22;14537;47.788;11.858;2022-09-02T13:21:53;21.50;99.90
26990;DHT22;14537;47.788;11.858;2022-09-02T13:32:20;21.50;99.90
26990;DHT22;14537;47.788;11.858;2022-09-02T13:34:47;21.40;99.90
26990;DHT22;14537;47.788;11.858;2022-09-02T13:39:52;21.50;99.90
26990;DHT22;14537;47.788;11.858;2022-09-02T13:42:19;21.40;99.90
26990;DHT22;14537;47.788;11.858;2022-09-02T13:44:46;21.50;99.90
26990;DHT22;14537;47.788;11.858;2022-09-02T13:47:16;21.50;99.90
26990;DHT22;14537;47.788;11.858;2022-09-02T13:49:48;21.30;99.90
26990;DHT22;14537;47.788;11.858;2022-09-02T13:52:15;21.10;99.90
26990;DHT22;14537;47.788;11.858;2022-09-02T13:54:51;20.70;99.90
26990;DHT22;14537;47.788;11.858;2022-09-02T13:57:23;20.50;99.90
26990;DHT22;14537;47.788;11.858;2022-09-02T13:59:50;20.50;99.90
26990;DHT22;14537;47.788;11.858;2022-09-02T14:02:37;20.70;99.90
26990;DHT22;14537;47.788;11.858;2022-09-02T14:05:06;20.80;99.90
26990;DHT22;14537;47.788;11.858;2022-09-02T14:07:45;21.10;99.90
26990;DHT22;14537;47.788;11.858;2022-09-02T14:10:14;21.40;99.90
26990;DHT22;14537;47.788;11.858;2022-09-02T14:12:40;21.50;99.90
26990;DHT22;14537;47.788;11.858;2022-09-02T14:15:06;21.70;99.90
26990;DHT22;14537;47.788;11.858;2022-09-02T14:17:32;21.90;99.90
26990;DHT22;14537;47.788;11.858;2022-09-02T14:20:07;21.90;99.90
26990;DHT22;14537;47.788;11.858;2022-09-02T14:22:33;21.80;99.90
26990;DHT22;14537;47.788;11.858;2022-09-02T14:25:06;21.80;99.90
26990;DHT22;14537;47.788;11.858;2022-09-02T14:27:32;22.10;98.70
26990;DHT22;14537;47.788;11.858;2022-09-02T14:29:58;22.30;99.90
26990;DHT22;14537;47.788;11.858;2022-09-02T14:32:24;22.40;99.30
26990;DHT22;14537;47.788;11.858;2022-09-02T14:37:52;22.70;98.60
26990;DHT22;14537;47.788;11.858;2022-09-02T14:40:36;23.00;98.20
26990;DHT22;14537;47.788;11.858;2022-09-02T14:43:02;23.10;97.20
26990;DHT22;14537;47.788;11.858;2022-09-02T14:45:29;23.20;97.30
26990;DHT22;14537;47.788;11.858;2022-09-02T14:47:55;23.10;97.10
26990;DHT22;14537;47.788;11.858;2022-09-02T14:50:23;23.20;97.50
26990;DHT22;14537;47.788;11.858;2022-09-02T14:52:50;23.40;96.30
26990;DHT22;14537;47.788;11.858;2022-09-02T14:55:38;23.60;97.00
26990;DHT22;14537;47.788;11.858;2022-09-02T14:58:06;23.70;96.20
26990;DHT22;14537;47.788;11.858;2022-09-02T15:00:31;23.90;95.70
26990;DHT22;14537;47.788;11.858;2022-09-02T15:02:57;24.10;94.60
26990;DHT22;14537;47.788;11.858;2022-09-02T15:05:24;24.10;94.70
26990;DHT22;14537;47.788;11.858;2022-09-02T15:07:50;24.30;93.80
26990;DHT22;14537;47.788;11.858;2022-09-02T15:10:16;24.60;93.60
26990;DHT22;14537;47.788;11.858;2022-09-02T15:12:49;25.10;92.70
26990;DHT22;14537;47.788;11.858;2022-09-02T15:15:15;25.40;93.50
26990;DHT22;14537;47.788;11.858;2022-09-02T15:17:41;25.80;90.60
26990;DHT22;14537;47.788;11.858;2022-09-02T15:20:07;26.00;90.70
26990;DHT22;14537;47.788;11.858;2022-09-02T15:22:33;26.10;90.30
26990;DHT22;14537;47.788;11.858;2022-09-02T15:24:59;26.50;89.60
26990;DHT22;14537;47.788;11.858;2022-09-02T15:27:25;26.80;87.70
26990;DHT22;14537;47.788;11.858;2022-09-02T15:29:50;27.20;83.50
26990;DHT22;14537;47.788;11.858;2022-09-02T15:32:16;27.10;83.90
26990;DHT22;14537;47.788;11.858;2022-09-02T15:34:41;27.70;82.00
26990;DHT22;14537;47.788;11.858;2022-09-02T15:37:07;28.40;78.80
26990;DHT22;14537;47.788;11.858;2022-09-02T15:39:33;28.40;76.00
26990;DHT22;14537;47.788;11.858;2022-09-02T15:41:59;28.70;74.00
26990;DHT22;14537;47.788;11.858;2022-09-02T15:44:24;28.70;71.40
26990;DHT22;14537;47.788;11.858;2022-09-02T15:46:50;29.00;69.30
26990;DHT22;14537;47.788;11.858;2022-09-02T15:49:16;29.20;69.60
26990;DHT22;14537;47.788;11.858;2022-09-02T15:51:42;29.50;67.10
26990;DHT22;14537;47.788;11.858;2022-09-02T15:54:11;29.40;67.90
26990;DHT22;14537;47.788;11.858;2022-09-02T15:56:38;29.20;66.00
26990;DHT22;14537;47.788;11.858;2022-09-02T15:59:05;28.80;65.50
26990;DHT22;14537;47.788;11.858;2022-09-02T16:01:34;28.20;66.10
26990;DHT22;14537;47.788;11.858;2022-09-02T16:04:02;27.60;69.30
26990;DHT22;14537;47.788;11.858;2022-09-02T16:06:27;27.00;68.30
26990;DHT22;14537;47.788;11.858;2022-09-02T16:08:53;26.40;70.30
26990;DHT22;14537;47.788;11.858;2022-09-02T16:11:19;26.10;71.00
26990;DHT22;14537;47.788;11.858;2022-09-02T16:13:45;25.70;72.20
26990;DHT22;14537;47.788;11.858;2022-09-02T16:16:12;25.40;72.40
26990;DHT22;14537;47.788;11.858;2022-09-02T16:18:38;25.20;75.20
26990;DHT22;14537;47.788;11.858;2022-09-02T16:21:04;24.80;73.90
26990;DHT22;14537;47.788;11.858;2022-09-02T16:23:30;24.40;76.20
26990;DHT22;14537;47.788;11.858;2022-09-02T16:26:05;24.30;78.90
26990;DHT22;14537;47.788;11.858;2022-09-02T16:28:38;24.30;78.90
26990;DHT22;14537;47.788;11.858;2022-09-02T16:31:04;24.20;77.70
26990;DHT22;14537;47.788;11.858;2022-09-02T16:33:30;24.10;77.60
26990;DHT22;14537;47.788;11.858;2022-09-02T16:35:56;24.10;78.80
26990;DHT22;14537;47.788;11.858;2022-09-02T16:38:21;24.00;78.50
26990;DHT22;14537;47.788;11.858;2022-09-02T16:40:51;23.90;78.60
26990;DHT22;14537;47.788;11.858;2022-09-02T16:43:17;23.60;78.90
26990;DHT22;14537;47.788;11.858;2022-09-02T16:45:43;23.40;81.80
26990;DHT22;14537;47.788;11.858;2022-09-02T16:48:10;23.10;81.90
26990;DHT22;14537;47.788;11.858;2022-09-02T16:50:35;22.90;85.10
26990;DHT22;14537;47.788;11.858;2022-09-02T16:53:01;22.40;82.80
26990;DHT22;14537;47.788;11.858;2022-09-02T16:55:26;22.20;84.70
26990;DHT22;14537;47.788;11.858;2022-09-02T16:57:52;21.90;86.00
26990;DHT22;14537;47.788;11.858;2022-09-02T17:00:17;21.60;87.50
26990;DHT22;14537;47.788;11.858;2022-09-02T17:02:43;21.40;88.60
26990;DHT22;14537;47.788;11.858;2022-09-02T17:05:09;21.20;89.80
26990;DHT22;14537;47.788;11.858;2022-09-02T17:07:35;21.00;90.20
26990;DHT22;14537;47.788;11.858;2022-09-02T17:10:01;20.80;90.20
26990;DHT22;14537;47.788;11.858;2022-09-02T17:12:26;20.50;90.60
26990;DHT22;14537;47.788;11.858;2022-09-02T17:14:52;20.30;91.00
26990;DHT22;14537;47.788;11.858;2022-09-02T17:17:17;20.00;91.80
26990;DHT22;14537;47.788;11.858;2022-09-02T17:19:43;19.80;92.40
26990;DHT22;14537;47.788;11.858;2022-09-02T17:22:09;19.50;93.10
26990;DHT22;14537;47.788;11.858;2022-09-02T17:24:34;19.20;93.30
26990;DHT22;14537;47.788;11.858;2022-09-02T17:27:00;19.00;93.90
26990;DHT22;14537;47.788;11.858;2022-09-02T17:29:26;18.80;94.40
26990;DHT22;14537;47.788;11.858;2022-09-02T17:31:53;18.60;94.70